createdAt,value
2023-02-14T00:01:50.003Z,19.30
2023-02-14T00:04:18.988Z,18.35
2023-02-14T00:06:46.455Z,18.13
2023-02-14T00:09:15.932Z,16.88
2023-02-14T00:11:43.540Z,17.67
2023-02-14T00:14:30.008Z,18.35
2023-02-14T00:16:57.037Z,17.30
2023-02-14T00:19:24.610Z,15.35
2023-02-14T00:21:52.304Z,17.33
2023-02-14T00:24:27.083Z,17.27
2023-02-14T00:26:54.256Z,17.30
2023-02-14T00:29:29.633Z,18.27
2023-02-14T00:31:56.884Z,16.30
2023-02-14T00:34:24.324Z,18.77
2023-02-14T00:36:51.640Z,16.35
2023-02-14T00:39:19.899Z,17.33
2023-02-14T00:41:47.109Z,18.23
2023-02-14T00:44:17.005Z,17.40
2023-02-14T00:46:45.091Z,17.95
2023-02-14T00:49:12.304Z,16.08
2023-02-14T00:51:40.137Z,18.33
2023-02-14T00:54:07.116Z,15.15
2023-02-14T00:56:34.175Z,14.38
2023-02-14T00:59:01.729Z,16.50
2023-02-14T01:01:29.011Z,17.00
2023-02-14T01:03:56.570Z,15.50
2023-02-14T01:06:23.556Z,17.75
2023-02-14T01:08:50.576Z,17.00
2023-02-14T01:11:23.430Z,13.98
2023-02-14T01:13:51.803Z,15.60
2023-02-14T01:16:21.929Z,15.85
2023-02-14T01:18:49.732Z,15.13
2023-02-14T01:21:37.345Z,17.45
2023-02-14T01:24:07.327Z,16.55
2023-02-14T01:26:35.893Z,15.35
2023-02-14T01:29:09.143Z,15.82
2023-02-14T01:31:45.464Z,16.23
2023-02-14T01:34:15.209Z,16.25
2023-02-14T01:36:48.046Z,15.68
2023-02-14T01:39:20.556Z,14.20
2023-02-14T01:41:51.526Z,15.23
2023-02-14T01:44:18.583Z,15.30
2023-02-14T01:46:48.502Z,15.50
2023-02-14T01:49:26.228Z,15.27
2023-02-14T01:52:36.867Z,14.25
2023-02-14T01:55:10.347Z,13.98
2023-02-14T01:58:02.725Z,15.60
2023-02-14T02:00:48.333Z,16.83
2023-02-14T02:03:17.535Z,13.80
2023-02-14T02:05:53.777Z,16.23
2023-02-14T02:08:22.158Z,15.32
2023-02-14T02:10:49.193Z,13.93
2023-02-14T02:13:20.145Z,14.07
2023-02-14T02:16:10.015Z,12.50
2023-02-14T02:18:40.094Z,13.85
2023-02-14T02:21:37.748Z,14.80
2023-02-14T02:24:16.928Z,14.55
2023-02-14T02:27:02.032Z,13.15
2023-02-14T02:29:50.277Z,14.93
2023-02-14T02:32:20.356Z,13.77
2023-02-14T02:35:18.048Z,15.43
2023-02-14T02:37:54.296Z,13.20
2023-02-14T02:40:58.700Z,13.68
2023-02-14T02:43:55.846Z,14.75
2023-02-14T02:46:47.854Z,14.02
2023-02-14T02:49:52.403Z,15.20
2023-02-14T02:53:09.031Z,15.40
2023-02-14T02:56:03.263Z,12.73
2023-02-14T02:58:42.803Z,12.45
2023-02-14T03:01:15.040Z,15.68
2023-02-14T03:04:04.064Z,13.50
2023-02-14T03:06:32.508Z,14.07
2023-02-14T03:09:12.920Z,13.07
2023-02-14T03:11:48.900Z,12.10
2023-02-14T03:14:33.900Z,12.82
2023-02-14T03:17:06.292Z,14.05
2023-02-14T03:20:11.323Z,13.52
2023-02-14T03:23:04.258Z,12.98
2023-02-14T03:25:37.569Z,14.90
2023-02-14T03:28:25.329Z,13.40
2023-02-14T03:31:04.524Z,12.60
2023-02-14T03:33:50.039Z,14.65
2023-02-14T03:36:23.728Z,13.75
2023-02-14T03:42:37.994Z,10.90
2023-02-14T03:45:15.233Z,13.23
2023-02-14T03:47:44.880Z,12.88
2023-02-14T03:50:24.277Z,12.68
2023-02-14T03:52:56.376Z,13.02
2023-02-14T03:55:37.018Z,13.70
2023-02-14T03:58:28.618Z,13.77
2023-02-14T04:01:03.127Z,12.88
2023-02-14T04:03:32.456Z,14.15
2023-02-14T04:06:00.918Z,13.70
2023-02-14T04:08:29.711Z,13.32
2023-02-14T04:11:07.069Z,11.35
2023-02-14T04:13:47.318Z,12.27
2023-02-14T04:16:17.367Z,13.27
2023-02-14T04:19:02.811Z,11.73
2023-02-14T04:21:29.859Z,12.43
2023-02-14T04:23:56.876Z,11.73
2023-02-14T04:26:24.044Z,12.20
2023-02-14T04:28:51.081Z,13.65
2023-02-14T04:31:18.314Z,12.35
2023-02-14T04:33:48.161Z,14.05
2023-02-14T04:36:15.377Z,14.48
2023-02-14T04:38:42.490Z,13.30
2023-02-14T04:41:09.531Z,11.50
2023-02-14T04:43:36.577Z,14.32
2023-02-14T04:46:03.748Z,12.50
2023-02-14T04:48:30.733Z,12.00
2023-02-14T04:50:57.906Z,10.98
2023-02-14T04:53:25.115Z,12.57
2023-02-14T04:55:52.187Z,12.30
2023-02-14T04:58:19.318Z,13.60
2023-02-14T05:00:46.286Z,12.77
2023-02-14T05:03:13.238Z,12.13
2023-02-14T05:05:40.219Z,13.52
2023-02-14T05:08:07.316Z,12.63
2023-02-14T05:10:34.406Z,13.05
2023-02-14T05:13:02.130Z,12.25
2023-02-14T05:15:29.151Z,12.05
2023-02-14T05:17:56.268Z,11.70
2023-02-14T05:20:23.344Z,12.93
2023-02-14T05:22:50.342Z,10.57
2023-02-14T05:25:17.388Z,11.73
2023-02-14T05:27:44.671Z,13.07
2023-02-14T05:30:12.782Z,13.32
2023-02-14T05:32:39.955Z,14.23
2023-02-14T05:35:07.258Z,14.30
2023-02-14T05:37:34.312Z,12.35
2023-02-14T05:40:01.564Z,11.43
2023-02-14T05:42:28.603Z,12.10
2023-02-14T05:44:55.550Z,12.73
2023-02-14T05:51:46.610Z,14.23
2023-02-14T05:54:13.784Z,15.10
2023-02-14T05:56:40.828Z,13.27
2023-02-14T05:59:07.912Z,12.40
2023-02-14T06:04:30.933Z,13.95
2023-02-14T06:06:57.984Z,12.82
2023-02-14T06:09:25.150Z,12.10
2023-02-14T06:11:54.947Z,12.73
2023-02-14T06:14:22.425Z,11.98
2023-02-14T06:16:49.528Z,12.70
2023-02-14T06:19:16.658Z,12.63
2023-02-14T06:21:43.733Z,14.95
2023-02-14T06:24:10.727Z,11.55
2023-02-14T06:26:37.676Z,12.50
2023-02-14T06:29:06.019Z,12.52
2023-02-14T06:31:36.039Z,13.45
2023-02-14T06:34:03.228Z,11.88
2023-02-14T06:36:30.330Z,14.68
2023-02-14T06:38:57.443Z,14.20
2023-02-14T06:41:24.583Z,14.93
2023-02-14T06:43:51.702Z,14.32
2023-02-14T06:46:19.202Z,12.30
2023-02-14T06:48:46.499Z,12.68
2023-02-14T06:51:13.835Z,12.60
2023-02-14T06:53:40.887Z,14.82
2023-02-14T06:56:08.410Z,14.10
2023-02-14T06:58:35.480Z,12.57
2023-02-14T07:01:02.847Z,14.02
2023-02-14T07:04:07.204Z,12.98
2023-02-14T07:06:34.149Z,12.93
2023-02-14T07:09:01.173Z,13.43
2023-02-14T07:11:28.753Z,18.35
2023-02-14T07:13:55.789Z,12.60
2023-02-14T07:16:22.890Z,14.07
2023-02-14T07:18:53.961Z,15.15
2023-02-14T07:21:21.314Z,13.98
2023-02-14T07:23:57.560Z,13.75
2023-02-14T07:26:24.856Z,15.50
2023-02-14T07:28:52.372Z,15.98
2023-02-14T08:22:49.204Z,13.30
2023-02-14T08:25:16.470Z,15.00
2023-02-14T08:27:43.492Z,14.30
2023-02-14T08:30:11.030Z,16.02
2023-02-14T08:32:38.157Z,13.48
2023-02-14T08:35:05.538Z,14.73
2023-02-14T08:37:32.605Z,14.82
2023-02-14T08:39:59.702Z,13.10
2023-02-14T08:42:26.919Z,13.45
2023-02-14T08:44:54.018Z,12.85
2023-02-14T08:47:21.190Z,14.35
2023-02-14T08:49:48.125Z,14.52
2023-02-14T08:52:15.177Z,16.30
2023-02-14T08:54:42.205Z,13.77
2023-02-14T08:57:09.182Z,14.07
2023-02-14T08:59:36.230Z,11.85
2023-02-14T09:02:03.307Z,13.43
2023-02-14T09:04:30.525Z,14.07
2023-02-14T09:06:57.526Z,14.38
2023-02-14T09:09:24.526Z,12.57
2023-02-14T09:11:51.582Z,12.45
2023-02-14T09:14:21.581Z,16.42
2023-02-14T09:16:48.612Z,13.20
2023-02-14T09:19:15.643Z,14.27
2023-02-14T09:21:42.723Z,12.45
2023-02-14T09:24:09.708Z,14.95
2023-02-14T09:26:40.561Z,13.27
2023-02-14T09:29:07.668Z,11.93
2023-02-14T09:31:34.800Z,13.57
2023-02-14T09:34:22.243Z,13.25
2023-02-14T09:37:07.661Z,11.57
2023-02-14T09:39:36.142Z,13.82
2023-02-14T09:42:37.816Z,15.77
2023-02-14T09:45:15.328Z,13.05
2023-02-14T09:48:03.020Z,11.30
2023-02-14T09:50:54.144Z,11.40
2023-02-14T09:54:38.317Z,12.97
2023-02-14T09:57:30.308Z,11.60
2023-02-14T10:00:04.181Z,11.23
2023-02-14T10:02:45.676Z,10.43
2023-02-14T10:05:23.231Z,10.63
2023-02-14T10:08:08.616Z,12.18
2023-02-14T10:10:44.374Z,9.90
2023-02-14T10:13:32.074Z,11.65
2023-02-14T10:16:39.135Z,10.35
2023-02-14T10:19:31.868Z,13.05
2023-02-14T10:22:03.175Z,11.05
2023-02-14T10:24:39.726Z,10.27
2023-02-14T10:27:31.877Z,11.07
2023-02-14T10:32:43.176Z,11.20
2023-02-14T10:35:33.602Z,10.70
2023-02-14T10:38:20.830Z,10.38
2023-02-14T10:40:55.747Z,9.70
2023-02-14T10:43:34.274Z,11.98
2023-02-14T10:46:26.066Z,11.75
2023-02-14T10:49:02.069Z,10.40
2023-02-14T10:51:52.482Z,12.20
2023-02-14T10:54:26.029Z,11.38
2023-02-14T10:56:53.178Z,11.05
2023-02-14T10:59:31.280Z,15.05
2023-02-14T11:02:00.862Z,9.27
2023-02-14T11:04:30.850Z,11.30
2023-02-14T11:06:57.908Z,9.13
2023-02-14T11:09:30.016Z,10.88
2023-02-14T11:12:05.562Z,8.30
2023-02-14T11:14:39.512Z,8.55
2023-02-14T11:27:11.687Z,10.57
2023-02-14T11:38:40.329Z,8.70
2023-02-14T11:44:27.265Z,7.38
2023-02-14T11:46:56.797Z,9.73
2023-02-14T11:49:28.568Z,8.07
2023-02-14T11:51:58.390Z,12.35
2023-02-14T11:54:38.087Z,8.63
2023-02-14T11:57:37.643Z,8.43
2023-02-14T12:03:05.571Z,9.88
2023-02-14T12:05:45.353Z,8.15
2023-02-14T12:08:13.022Z,7.72
2023-02-14T12:10:42.158Z,8.40
2023-02-14T12:13:09.216Z,7.40
2023-02-14T12:15:43.691Z,10.85
2023-02-14T12:18:25.588Z,7.68
2023-02-14T12:21:27.568Z,7.10
2023-02-14T12:24:13.157Z,6.90
2023-02-14T12:27:04.892Z,8.00
2023-02-14T12:29:34.842Z,8.82
2023-02-14T12:32:11.662Z,6.68
2023-02-14T12:34:38.980Z,8.88
2023-02-14T12:37:10.477Z,6.53
2023-02-14T12:40:08.638Z,7.50
2023-02-14T12:46:39.380Z,6.90
2023-02-14T13:07:00.735Z,6.03
2023-02-14T13:09:59.926Z,8.15
2023-02-14T13:12:51.189Z,6.93
2023-02-14T13:30:55.895Z,9.45
2023-02-14T13:33:41.567Z,8.23
2023-02-14T13:36:12.647Z,10.25
2023-02-14T13:41:24.660Z,9.55
2023-02-14T13:44:05.561Z,10.88
2023-02-14T13:46:32.937Z,9.00
2023-02-14T13:49:32.026Z,8.68
2023-02-14T13:52:04.716Z,11.63
2023-02-14T13:54:40.018Z,12.63
2023-02-14T13:57:34.366Z,10.45
2023-02-14T14:00:20.073Z,12.18
2023-02-14T14:02:55.945Z,14.68
2023-02-14T14:09:00.298Z,11.23
2023-02-14T14:18:48.826Z,11.32
2023-02-14T14:21:37.816Z,13.00
2023-02-14T14:24:35.087Z,14.93
2023-02-14T14:27:43.113Z,12.32
2023-02-14T14:30:26.025Z,14.20
2023-02-14T14:32:53.186Z,13.25
2023-02-14T14:35:25.767Z,16.85
2023-02-14T14:37:55.604Z,15.25
2023-02-14T14:40:25.950Z,15.60
2023-02-14T14:42:54.618Z,14.82
2023-02-14T14:45:28.457Z,14.63
2023-02-14T14:48:09.728Z,15.85
2023-02-14T14:50:37.223Z,16.40
2023-02-14T14:53:09.700Z,19.40
2023-02-14T14:55:39.774Z,17.75
2023-02-14T14:58:27.284Z,17.00
2023-02-14T15:00:54.288Z,16.88
2023-02-14T15:03:25.360Z,15.80
2023-02-14T15:06:05.640Z,18.23
2023-02-14T15:08:33.212Z,17.45
2023-02-14T15:11:07.865Z,19.58
2023-02-14T15:13:54.381Z,17.13
2023-02-14T15:16:40.232Z,17.90
2023-02-14T15:19:10.473Z,16.77
2023-02-14T15:21:44.739Z,22.23
2023-02-14T15:24:24.964Z,18.25
2023-02-14T15:26:53.512Z,19.27
2023-02-14T15:29:34.896Z,19.65
2023-02-14T15:32:03.555Z,21.67
2023-02-14T15:34:36.160Z,21.17
2023-02-14T15:37:06.575Z,21.33
2023-02-14T15:39:40.078Z,22.48
2023-02-14T15:42:35.214Z,21.23
2023-02-14T15:45:38.603Z,22.05
2023-02-14T15:48:16.096Z,20.83
2023-02-14T15:50:59.030Z,22.25
2023-02-14T15:53:41.935Z,23.40
2023-02-14T15:56:25.282Z,21.42
2023-02-14T15:59:04.484Z,27.33
2023-02-14T16:01:35.281Z,22.67
2023-02-14T16:04:08.889Z,20.73
2023-02-14T16:06:41.552Z,22.50
2023-02-14T16:09:27.107Z,24.80
2023-02-14T16:11:59.872Z,24.67
2023-02-14T16:15:11.174Z,21.23
2023-02-14T16:36:18.241Z,23.55
2023-02-14T16:38:46.441Z,19.60
2023-02-14T16:41:27.550Z,22.63
2023-02-14T16:43:57.172Z,19.17
2023-02-14T16:46:29.593Z,20.73
2023-02-14T16:48:57.531Z,19.02
2023-02-14T16:51:28.799Z,19.27
2023-02-14T16:53:59.530Z,20.80
2023-02-14T16:56:53.006Z,19.02
2023-02-14T16:59:20.439Z,19.73
2023-02-14T17:01:48.108Z,18.88
2023-02-14T17:04:16.178Z,19.45
2023-02-14T17:25:51.128Z,14.95
2023-02-14T17:28:21.700Z,17.05
2023-02-14T17:34:15.615Z,19.42
